createdAt,value
2022-11-15T00:00:51.009Z,6.80
2022-11-15T00:03:36.766Z,6.80
2022-11-15T00:06:22.029Z,6.80
2022-11-15T00:09:07.543Z,6.90
2022-11-15T00:11:53.351Z,6.90
2022-11-15T00:14:38.710Z,7.00
2022-11-15T00:17:24.165Z,7.00
2022-11-15T00:20:10.286Z,7.00
2022-11-15T00:22:55.652Z,7.00
2022-11-15T00:25:41.442Z,6.90
2022-11-15T00:28:26.844Z,6.90
2022-11-15T00:31:14.453Z,7.00
2022-11-15T00:33:59.627Z,6.90
2022-11-15T00:36:45.076Z,6.90
2022-11-15T00:39:30.456Z,6.90
2022-11-15T00:42:16.062Z,6.90
2022-11-15T00:45:01.465Z,6.80
2022-11-15T00:47:47.552Z,6.80
2022-11-15T00:50:33.075Z,6.80
2022-11-15T00:53:18.850Z,6.80
2022-11-15T00:56:04.721Z,6.70
2022-11-15T00:58:49.984Z,6.70
2022-11-15T01:01:35.407Z,6.70
2022-11-15T01:04:20.919Z,6.60
2022-11-15T01:07:06.131Z,6.60
2022-11-15T01:09:51.808Z,6.60
2022-11-15T01:12:37.344Z,6.60
2022-11-15T01:15:22.978Z,6.60
2022-11-15T01:18:08.660Z,6.60
2022-11-15T01:20:57.313Z,6.60
2022-11-15T01:23:43.615Z,6.70
2022-11-15T01:26:30.127Z,6.80
2022-11-15T01:29:15.665Z,6.90
2022-11-15T01:32:01.339Z,6.90
2022-11-15T01:34:46.669Z,6.90
2022-11-15T01:37:32.157Z,6.90
2022-11-15T01:40:17.619Z,6.90
2022-11-15T01:43:28.230Z,6.90
2022-11-15T01:46:26.082Z,6.90
2022-11-15T01:49:20.905Z,7.00
2022-11-15T01:52:21.708Z,7.00
2022-11-15T01:55:37.085Z,7.10
2022-11-15T01:58:22.779Z,7.20
2022-11-15T02:01:08.823Z,7.30
2022-11-15T02:04:12.453Z,7.40
2022-11-15T02:06:58.053Z,7.50
2022-11-15T02:09:45.093Z,7.60
2022-11-15T02:12:32.447Z,7.60
2022-11-15T02:15:19.011Z,7.70
2022-11-15T02:18:28.994Z,7.80
2022-11-15T02:21:22.060Z,7.90
2022-11-15T02:24:40.940Z,8.00
2022-11-15T02:27:39.369Z,8.00
2022-11-15T02:30:53.152Z,8.10
2022-11-15T02:34:23.213Z,8.20
2022-11-15T02:37:08.788Z,8.20
2022-11-15T02:40:28.244Z,8.20
2022-11-15T02:43:36.898Z,8.30
2022-11-15T02:47:01.829Z,8.40
2022-11-15T02:49:54.351Z,8.50
2022-11-15T02:52:40.260Z,8.50
2022-11-15T02:55:37.723Z,8.50
2022-11-15T02:58:45.492Z,8.60
2022-11-15T03:01:46.041Z,8.60
2022-11-15T03:04:58.568Z,8.70
2022-11-15T03:08:07.825Z,8.70
2022-11-15T03:11:02.483Z,8.70
2022-11-15T03:13:57.773Z,8.80
2022-11-15T03:16:43.062Z,8.80
2022-11-15T03:19:40.566Z,8.90
2022-11-15T03:22:29.563Z,8.90
2022-11-15T03:25:21.061Z,8.80
2022-11-15T03:28:10.438Z,8.80
2022-11-15T03:30:57.439Z,8.60
2022-11-15T03:33:44.195Z,8.50
2022-11-15T03:36:33.154Z,8.40
2022-11-15T03:39:20.703Z,8.30
2022-11-15T03:42:13.639Z,8.20
2022-11-15T03:45:23.163Z,8.10
2022-11-15T03:48:22.446Z,7.90
2022-11-15T03:51:07.794Z,7.80
2022-11-15T03:53:52.987Z,7.60
2022-11-15T03:56:38.500Z,7.50
2022-11-15T03:59:24.059Z,7.30
2022-11-15T04:02:09.402Z,7.30
2022-11-15T04:04:54.662Z,7.10
2022-11-15T04:07:39.972Z,7.00
2022-11-15T04:10:25.538Z,7.00
2022-11-15T04:13:10.993Z,6.80
2022-11-15T04:15:56.435Z,6.80
2022-11-15T04:18:41.926Z,6.80
2022-11-15T04:21:45.768Z,6.90
2022-11-15T04:24:31.244Z,7.00
2022-11-15T04:27:16.786Z,7.00
2022-11-15T04:30:02.317Z,7.00
2022-11-15T04:32:47.796Z,6.90
2022-11-15T04:35:33.184Z,6.90
2022-11-15T04:38:18.497Z,6.80
2022-11-15T04:41:04.530Z,6.80
2022-11-15T04:43:50.097Z,6.80
2022-11-15T04:46:35.515Z,6.70
2022-11-15T04:49:20.902Z,6.60
2022-11-15T04:52:06.439Z,6.60
2022-11-15T04:54:52.087Z,6.50
2022-11-15T04:57:38.636Z,6.50
2022-11-15T05:00:23.957Z,6.40
2022-11-15T05:03:29.698Z,6.40
2022-11-15T05:06:15.345Z,6.30
2022-11-15T05:09:00.715Z,6.30
2022-11-15T05:11:46.736Z,6.20
2022-11-15T05:14:32.199Z,6.20
2022-11-15T05:17:17.866Z,6.20
2022-11-15T05:20:03.505Z,6.10
2022-11-15T05:22:48.756Z,6.10
2022-11-15T05:25:34.405Z,6.10
2022-11-15T05:28:19.535Z,6.10
2022-11-15T05:31:07.556Z,6.10
2022-11-15T05:33:54.363Z,6.10
2022-11-15T05:36:43.437Z,6.10
2022-11-15T05:39:28.861Z,6.10
2022-11-15T05:42:16.058Z,6.10
2022-11-15T05:45:03.493Z,6.20
2022-11-15T05:47:49.995Z,6.20
2022-11-15T05:50:38.544Z,6.10
2022-11-15T05:53:25.737Z,6.10
2022-11-15T05:56:11.680Z,6.10
2022-11-15T05:58:59.981Z,6.00
2022-11-15T06:01:45.976Z,5.90
2022-11-15T06:04:31.643Z,5.90
2022-11-15T06:07:17.267Z,5.80
2022-11-15T06:10:02.656Z,5.80
2022-11-15T06:12:48.144Z,5.70
2022-11-15T06:15:37.414Z,5.70
2022-11-15T06:18:22.571Z,5.60
2022-11-15T06:21:08.084Z,5.60
2022-11-15T06:23:53.642Z,5.60
2022-11-15T06:26:39.170Z,5.60
2022-11-15T06:29:24.844Z,5.60
2022-11-15T06:32:10.279Z,5.60
2022-11-15T06:34:55.459Z,5.60
2022-11-15T06:37:42.040Z,5.60
2022-11-15T06:40:27.483Z,5.70
2022-11-15T06:43:13.211Z,5.70
2022-11-15T06:46:02.811Z,5.70
2022-11-15T06:48:50.123Z,5.70
2022-11-15T06:51:35.555Z,5.80
2022-11-15T06:54:21.970Z,5.80
2022-11-15T06:57:07.534Z,5.90
2022-11-15T06:59:53.260Z,5.90
2022-11-15T07:02:38.552Z,6.00
2022-11-15T07:05:23.843Z,6.00
2022-11-15T07:08:10.605Z,6.10
2022-11-15T07:11:00.811Z,6.20
2022-11-15T07:13:46.389Z,6.30
2022-11-15T07:16:31.857Z,6.50
2022-11-15T07:19:17.007Z,6.60
2022-11-15T07:22:02.407Z,6.70
2022-11-15T07:24:47.939Z,7.00
2022-11-15T07:27:33.636Z,7.30
2022-11-15T07:30:19.774Z,7.60
2022-11-15T07:33:05.289Z,8.00
2022-11-15T07:35:50.873Z,8.30
2022-11-15T07:38:42.395Z,8.60
2022-11-15T07:41:28.461Z,9.20
2022-11-15T07:44:13.998Z,10.00
2022-11-15T07:46:59.682Z,10.90
2022-11-15T07:49:45.043Z,11.70
2022-11-15T07:52:30.494Z,12.50
2022-11-15T07:55:16.079Z,13.50
2022-11-15T07:58:06.413Z,14.30
2022-11-15T08:00:51.727Z,14.90
2022-11-15T08:03:37.137Z,15.30
2022-11-15T08:06:22.414Z,15.60
2022-11-15T08:09:08.164Z,15.50
2022-11-15T08:11:53.557Z,15.40
2022-11-15T08:14:39.552Z,15.20
2022-11-15T08:17:26.008Z,15.20
2022-11-15T08:20:12.050Z,15.30
2022-11-15T08:23:02.983Z,15.70
2022-11-15T08:25:48.322Z,16.40
2022-11-15T08:28:33.887Z,17.00
2022-11-15T08:31:20.211Z,17.40
2022-11-15T08:34:06.431Z,17.60
2022-11-15T08:36:52.084Z,17.60
2022-11-15T08:39:38.879Z,17.60
2022-11-15T08:42:24.483Z,17.60
2022-11-15T08:45:10.682Z,17.60
2022-11-15T08:47:56.661Z,17.10
2022-11-15T08:50:42.090Z,16.70
2022-11-15T08:53:27.750Z,16.40
2022-11-15T08:56:15.871Z,15.90
2022-11-15T08:59:01.113Z,15.60
2022-11-15T09:01:46.637Z,15.40
2022-11-15T09:04:32.597Z,15.20
2022-11-15T09:07:18.932Z,14.80
2022-11-15T09:10:05.061Z,14.60
2022-11-15T09:12:51.388Z,14.40
2022-11-15T09:15:37.154Z,14.20
2022-11-15T09:18:23.664Z,14.20
2022-11-15T09:21:10.421Z,14.20
2022-11-15T09:23:55.937Z,14.20
2022-11-15T09:26:41.749Z,14.20
2022-11-15T09:29:27.377Z,14.10
2022-11-15T09:32:12.741Z,14.10
2022-11-15T09:34:58.565Z,14.00
2022-11-15T09:37:44.007Z,13.90
2022-11-15T09:40:32.422Z,14.00
2022-11-15T09:43:28.298Z,14.00
2022-11-15T09:46:38.810Z,14.20
2022-11-15T09:49:32.993Z,14.50
2022-11-15T09:52:20.121Z,15.00
2022-11-15T09:54:55.180Z,15.90
2022-11-15T09:57:53.158Z,16.80
2022-11-15T10:00:51.490Z,17.80
2022-11-15T10:03:26.075Z,18.90
2022-11-15T10:05:55.198Z,19.90
2022-11-15T10:08:32.826Z,20.70
2022-11-15T10:11:36.309Z,21.30
2022-11-15T10:13:52.302Z,21.50
2022-11-15T10:16:35.631Z,22.00
2022-11-15T10:19:33.970Z,22.60
2022-11-15T10:22:22.151Z,23.00
2022-11-15T10:24:51.556Z,23.30
2022-11-15T10:27:19.912Z,23.70
2022-11-15T10:29:51.468Z,23.90
2022-11-15T10:32:21.479Z,23.50
2022-11-15T10:34:50.550Z,22.80
2022-11-15T10:37:32.100Z,21.90
2022-11-15T10:40:18.189Z,21.10
2022-11-15T10:42:45.092Z,20.20
2022-11-15T10:45:26.558Z,19.70
2022-11-15T10:47:53.526Z,19.30
2022-11-15T10:50:32.550Z,18.90
2022-11-15T10:53:02.274Z,18.50
2022-11-15T10:55:32.623Z,18.20
2022-11-15T10:58:06.841Z,17.90
2022-11-15T11:00:40.762Z,17.50
2022-11-15T11:03:28.743Z,17.30
2022-11-15T11:06:13.950Z,17.00
2022-11-15T11:08:41.690Z,16.80
2022-11-15T11:11:09.322Z,16.60
2022-11-15T11:13:40.525Z,16.50
2022-11-15T11:16:15.722Z,16.30
2022-11-15T11:19:09.779Z,16.20
2022-11-15T11:21:53.095Z,16.20
2022-11-15T11:24:43.580Z,16.00
2022-11-15T11:27:13.203Z,15.90
2022-11-15T11:29:50.861Z,15.90
2022-11-15T11:32:29.878Z,15.80
2022-11-15T11:35:14.292Z,15.70
2022-11-15T11:38:03.236Z,15.70
2022-11-15T11:41:04.944Z,15.60
2022-11-15T11:43:45.423Z,15.70
2022-11-15T11:46:43.177Z,15.80
2022-11-15T11:49:24.592Z,15.90
2022-11-15T11:51:55.771Z,15.90
2022-11-15T11:54:38.016Z,15.90
2022-11-15T11:57:12.958Z,15.80
2022-11-15T12:00:04.837Z,15.70
2022-11-15T12:03:04.243Z,15.70
2022-11-15T12:05:37.913Z,15.60
2022-11-15T12:08:30.250Z,15.60
2022-11-15T12:11:15.553Z,15.60
2022-11-15T12:13:44.554Z,15.60
2022-11-15T12:16:19.900Z,15.70
2022-11-15T12:18:52.278Z,15.70
2022-11-15T12:21:36.671Z,15.70
2022-11-15T12:24:13.738Z,15.70
2022-11-15T12:26:52.248Z,15.70
2022-11-15T12:29:36.111Z,15.60
2022-11-15T12:32:04.733Z,15.60
2022-11-15T12:34:40.498Z,15.70
2022-11-15T12:37:39.428Z,15.80
2022-11-15T12:40:06.199Z,15.80
2022-11-15T12:42:58.179Z,15.90
2022-11-15T12:45:33.421Z,16.00
2022-11-15T12:48:18.778Z,16.10
2022-11-15T12:50:51.764Z,16.20
2022-11-15T12:53:28.511Z,16.30
2022-11-15T12:56:13.886Z,16.40
2022-11-15T12:58:53.845Z,16.50
2022-11-15T13:01:38.749Z,16.60
2022-11-15T13:04:27.164Z,16.60
2022-11-15T13:06:53.991Z,16.60
2022-11-15T13:09:33.363Z,16.50
2022-11-15T13:12:14.704Z,16.50
2022-11-15T13:14:44.790Z,16.50
2022-11-15T13:17:20.565Z,16.40
2022-11-15T13:19:53.534Z,16.30
2022-11-15T13:22:39.052Z,16.30
2022-11-15T13:25:20.148Z,16.20
2022-11-15T13:27:49.977Z,16.10
2022-11-15T13:30:25.286Z,16.00
2022-11-15T13:32:53.442Z,15.80
2022-11-15T13:35:24.963Z,15.70
2022-11-15T13:37:53.838Z,15.70
2022-11-15T13:40:28.441Z,15.50
2022-11-15T13:42:55.779Z,15.50
2022-11-15T13:45:22.686Z,15.40
2022-11-15T13:47:58.061Z,15.40
2022-11-15T13:50:30.646Z,15.30
2022-11-15T13:53:00.929Z,15.30
2022-11-15T13:55:29.430Z,15.30
2022-11-15T13:57:59.867Z,15.20
2022-11-15T14:00:26.744Z,15.20
2022-11-15T14:02:56.039Z,15.10
2022-11-15T14:05:25.778Z,15.00
2022-11-15T14:08:03.541Z,15.00
2022-11-15T14:10:37.049Z,15.00
2022-11-15T14:13:05.602Z,15.00
2022-11-15T14:15:35.662Z,15.00
2022-11-15T14:18:03.134Z,14.90
2022-11-15T14:20:34.540Z,14.90
2022-11-15T14:23:03.997Z,14.80
2022-11-15T14:25:32.595Z,14.80
2022-11-15T14:28:18.270Z,14.70
2022-11-15T14:30:51.239Z,14.70
2022-11-15T14:33:37.870Z,14.60
2022-11-15T14:36:11.439Z,14.60
2022-11-15T14:38:38.325Z,14.60
2022-11-15T14:41:05.607Z,14.50
2022-11-15T14:43:32.873Z,14.40
2022-11-15T14:46:00.206Z,14.30
2022-11-15T14:48:27.087Z,14.20
2022-11-15T14:50:53.833Z,14.10
2022-11-15T14:53:20.897Z,14.00
2022-11-15T14:55:47.845Z,14.00
2022-11-15T14:58:14.726Z,14.00
2022-11-15T15:00:42.680Z,13.90
2022-11-15T15:03:09.805Z,13.90
2022-11-15T15:05:44.989Z,13.80
2022-11-15T15:08:12.864Z,13.70
2022-11-15T15:10:42.850Z,13.70
2022-11-15T15:13:21.706Z,13.60
2022-11-15T15:15:50.191Z,13.60
2022-11-15T15:18:17.826Z,13.50
2022-11-15T15:20:46.873Z,13.50
2022-11-15T15:23:17.997Z,13.50
2022-11-15T15:25:46.629Z,13.40
2022-11-15T15:28:14.249Z,13.30
2022-11-15T15:30:41.641Z,13.30
2022-11-15T15:33:08.480Z,13.20
2022-11-15T15:35:36.175Z,13.10
2022-11-15T15:38:03.679Z,13.10
2022-11-15T15:40:33.024Z,13.00
2022-11-15T15:43:00.112Z,13.00
2022-11-15T15:45:28.474Z,12.90
2022-11-15T15:47:55.765Z,12.90
2022-11-15T15:50:29.225Z,12.80
2022-11-15T15:52:58.253Z,12.80
2022-11-15T15:55:25.575Z,12.70
2022-11-15T15:57:52.446Z,12.70
2022-11-15T16:00:21.107Z,12.70
2022-11-15T16:02:48.137Z,12.70
2022-11-15T16:05:15.000Z,12.60
2022-11-15T16:07:44.076Z,12.50
2022-11-15T16:10:22.570Z,12.40
2022-11-15T16:12:50.082Z,12.30
2022-11-15T16:15:17.413Z,12.30
2022-11-15T16:18:01.394Z,12.20
2022-11-15T16:20:37.157Z,12.10
2022-11-15T16:23:08.927Z,12.10
2022-11-15T16:25:39.529Z,12.00
2022-11-15T16:28:13.010Z,12.00
2022-11-15T16:30:39.928Z,12.00
2022-11-15T16:33:06.639Z,12.10
2022-11-15T16:35:33.515Z,12.00
2022-11-15T16:38:00.393Z,12.00
2022-11-15T16:40:32.623Z,11.90
2022-11-15T16:43:00.135Z,11.90
2022-11-15T16:45:29.279Z,11.80
2022-11-15T16:47:56.532Z,11.80
2022-11-15T16:50:29.346Z,11.80
2022-11-15T16:52:58.012Z,11.80
2022-11-15T16:55:28.249Z,11.70
2022-11-15T16:57:57.978Z,11.70
2022-11-15T17:00:25.873Z,11.70
2022-11-15T17:02:53.838Z,11.70
2022-11-15T17:05:23.220Z,11.60
2022-11-15T17:07:54.579Z,11.60
2022-11-15T17:10:23.443Z,11.60
2022-11-15T17:12:51.176Z,11.50
2022-11-15T17:15:18.551Z,11.50
2022-11-15T17:17:50.926Z,11.50
2022-11-15T17:20:19.309Z,11.40
2022-11-15T17:22:47.272Z,11.40
2022-11-15T17:25:14.506Z,11.30
2022-11-15T17:27:41.637Z,11.20
2022-11-15T17:30:11.916Z,11.20
2022-11-15T17:32:39.092Z,11.10
2022-11-15T17:35:12.077Z,11.10
2022-11-15T17:37:41.906Z,11.10
2022-11-15T17:40:09.369Z,11.10
2022-11-15T17:42:36.168Z,11.10
2022-11-15T17:45:08.418Z,11.10
2022-11-15T17:47:37.009Z,11.10
2022-11-15T17:50:04.377Z,11.10
2022-11-15T17:52:31.234Z,11.10
2022-11-15T17:54:58.072Z,11.10
2022-11-15T17:57:24.798Z,11.10
2022-11-15T17:59:51.653Z,11.10
2022-11-15T18:02:19.462Z,11.10
2022-11-15T18:04:46.322Z,11.10
2022-11-15T18:07:14.159Z,11.10
2022-11-15T18:09:43.742Z,11.10
2022-11-15T18:12:12.087Z,11.10
2022-11-15T18:14:39.309Z,11.10
2022-11-15T18:17:06.543Z,11.10
2022-11-15T18:19:33.705Z,11.10
2022-11-15T18:22:01.797Z,11.10
2022-11-15T18:24:38.420Z,11.10
2022-11-15T18:27:06.379Z,11.10
2022-11-15T18:29:35.417Z,11.10
2022-11-15T18:32:05.016Z,11.20
2022-11-15T18:34:33.964Z,11.20
2022-11-15T18:37:02.748Z,11.20
2022-11-15T18:39:30.236Z,11.20
2022-11-15T18:41:57.289Z,11.20
2022-11-15T18:44:24.022Z,11.20
2022-11-15T18:46:51.047Z,11.30
2022-11-15T18:49:19.597Z,11.30
2022-11-15T18:51:47.074Z,11.30
2022-11-15T18:54:16.228Z,11.30
2022-11-15T18:56:46.993Z,11.30
2022-11-15T18:59:15.052Z,11.30
2022-11-15T19:01:46.492Z,11.30
2022-11-15T19:04:17.489Z,11.40
2022-11-15T19:06:47.095Z,11.40
2022-11-15T19:09:16.178Z,11.40
2022-11-15T19:11:45.157Z,11.40
2022-11-15T19:14:14.501Z,11.40
2022-11-15T19:16:44.763Z,11.40
2022-11-15T19:19:16.790Z,11.40
2022-11-15T19:21:44.585Z,11.40
2022-11-15T19:24:11.888Z,11.40
2022-11-15T19:26:39.311Z,11.40
2022-11-15T19:29:07.936Z,11.30
2022-11-15T19:31:35.124Z,11.30
2022-11-15T19:34:04.795Z,11.30
2022-11-15T19:36:36.496Z,11.30
2022-11-15T19:39:08.266Z,11.20
2022-11-15T19:41:36.452Z,11.30
2022-11-15T19:44:03.602Z,11.20
2022-11-15T19:46:30.650Z,11.30
2022-11-15T19:48:57.843Z,11.30
2022-11-15T19:51:27.444Z,11.30
2022-11-15T19:53:57.182Z,11.40
2022-11-15T19:56:27.593Z,11.40
2022-11-15T19:58:58.143Z,11.40
2022-11-15T20:01:27.393Z,11.40
2022-11-15T20:03:57.985Z,11.50
2022-11-15T20:06:27.750Z,11.50
2022-11-15T20:08:54.828Z,11.50
2022-11-15T20:11:21.659Z,11.50
2022-11-15T20:13:48.514Z,11.40
2022-11-15T20:16:24.874Z,11.40
2022-11-15T20:18:53.138Z,11.40
2022-11-15T20:21:20.716Z,11.40
2022-11-15T20:23:47.939Z,11.50
2022-11-15T20:26:15.813Z,11.50
2022-11-15T20:28:44.702Z,11.40
2022-11-15T20:31:12.204Z,11.40
2022-11-15T20:33:39.243Z,11.40
2022-11-15T20:36:08.288Z,11.40
2022-11-15T20:38:35.467Z,11.30
2022-11-15T20:41:02.546Z,11.30
2022-11-15T20:43:29.526Z,11.30
2022-11-15T20:45:56.357Z,11.20
2022-11-15T20:48:23.156Z,11.20
2022-11-15T20:50:50.049Z,11.20
2022-11-15T20:53:19.299Z,11.20
2022-11-15T20:55:48.599Z,11.20
2022-11-15T20:58:17.010Z,11.20
2022-11-15T21:00:45.556Z,11.20
2022-11-15T21:03:14.112Z,11.20
2022-11-15T21:05:44.751Z,11.20
2022-11-15T21:08:12.681Z,11.20
2022-11-15T21:10:59.093Z,11.20
2022-11-15T21:13:26.662Z,11.20
2022-11-15T21:15:57.882Z,11.20
2022-11-15T21:18:25.130Z,11.20
2022-11-15T21:20:53.716Z,11.20
2022-11-15T21:23:20.748Z,11.10
2022-11-15T21:25:52.046Z,11.10
2022-11-15T21:28:18.990Z,11.10
2022-11-15T21:30:53.670Z,11.10
2022-11-15T21:33:21.498Z,11.10
2022-11-15T21:35:48.311Z,11.10
2022-11-15T21:38:15.478Z,11.10
2022-11-15T21:40:42.362Z,11.10
2022-11-15T21:43:09.107Z,11.10
2022-11-15T21:45:35.979Z,11.10
2022-11-15T21:48:03.005Z,11.10
2022-11-15T21:50:29.765Z,11.10
2022-11-15T21:52:56.661Z,11.10
2022-11-15T21:55:23.414Z,11.10
2022-11-15T21:57:50.231Z,11.10
2022-11-15T22:00:36.604Z,11.10
2022-11-15T22:03:03.732Z,11.10
2022-11-15T22:05:30.598Z,11.10
2022-11-15T22:07:57.370Z,11.00
2022-11-15T22:10:24.360Z,10.90
2022-11-15T22:12:52.644Z,10.80
2022-11-15T22:15:32.304Z,10.70
2022-11-15T22:18:07.641Z,10.60
2022-11-15T22:20:49.783Z,10.50
2022-11-15T22:23:16.692Z,10.40
2022-11-15T22:25:50.231Z,10.30
2022-11-15T22:28:32.271Z,10.30
2022-11-15T22:31:01.100Z,10.20
2022-11-15T22:33:30.076Z,10.10
2022-11-15T22:35:57.653Z,10.10
2022-11-15T22:38:25.172Z,10.00
2022-11-15T22:40:52.208Z,10.00
2022-11-15T22:43:20.715Z,9.90
2022-11-15T22:45:48.963Z,9.90
2022-11-15T22:48:16.784Z,9.80
2022-11-15T22:50:44.234Z,9.80
2022-11-15T22:53:11.348Z,9.70
2022-11-15T22:55:39.607Z,9.70
2022-11-15T22:58:06.787Z,9.70
2022-11-15T23:00:33.701Z,9.70
2022-11-15T23:03:00.884Z,9.70
2022-11-15T23:05:27.944Z,9.70
2022-11-15T23:07:54.831Z,9.70
2022-11-15T23:10:40.187Z,9.70
2022-11-15T23:13:18.545Z,9.80
2022-11-15T23:16:06.451Z,9.70
2022-11-15T23:18:38.654Z,9.70
2022-11-15T23:21:13.691Z,9.70
2022-11-15T23:23:40.846Z,9.70
2022-11-15T23:26:09.070Z,9.70
2022-11-15T23:28:36.363Z,9.70
2022-11-15T23:31:24.426Z,9.70
2022-11-15T23:34:00.143Z,9.70
2022-11-15T23:36:28.409Z,9.70
2022-11-15T23:38:55.461Z,9.70
2022-11-15T23:41:26.468Z,9.70
2022-11-15T23:43:53.421Z,9.70
2022-11-15T23:46:20.367Z,9.70
2022-11-15T23:48:47.479Z,9.70
2022-11-15T23:51:14.636Z,9.60
2022-11-15T23:53:41.662Z,9.50
2022-11-15T23:56:12.375Z,9.40
2022-11-15T23:58:39.767Z,9.40
